Time;durP1;ratioP1;P1;durP2;ratioP2;P2;SDS_P1;SDS_P2;PMS_P1;PMS_P2;Temp;Humidity;BMP_temperature;BMP_pressure;BME280_temperature;BME280_humidity;BME280_pressure;Samples;Min_cycle;Max_cycle;Signal;HPM_P1;HPM_P2
2023/02/27 00:01:43;;;;;;;0.20;0.10;;;;;;;0.45;72.25;101074.94;5073503;28;20450;-53
2023/02/27 00:04:10;;;;;;;0.20;0.17;;;;;;;0.52;71.89;101079.44;5073324;28;20476;-53
2023/02/27 00:06:38;;;;;;;0.20;0.10;;;;;;;0.33;72.26;101075.50;5073076;28;20516;-53
2023/02/27 00:09:04;;;;;;;0.33;0.33;;;;;;;0.44;72.07;101065.31;5073057;28;20446;-51
2023/02/27 00:11:31;;;;;;;0.20;0.17;;;;;;;0.49;72.41;101075.03;5072941;28;20958;-53
2023/02/27 00:13:57;;;;;;;0.20;0.10;;;;;;;0.48;72.37;101072.38;5073234;28;20446;-52
2023/02/27 00:16:24;;;;;;;2.53;0.40;;;;;;;0.36;72.17;101074.69;5072994;28;20598;-52
2023/02/27 00:18:50;;;;;;;0.37;0.37;;;;;;;0.46;71.42;101074.09;5055387;28;20492;-54
2023/02/27 00:21:17;;;;;;;0.20;0.20;;;;;;;0.38;72.15;101067.78;5072944;28;20460;-52
2023/02/27 00:23:43;;;;;;;0.27;0.20;;;;;;;0.34;72.84;101068.53;5072833;28;20456;-54
2023/02/27 00:26:09;;;;;;;0.20;0.20;;;;;;;0.41;71.75;101063.53;5072862;28;20465;-53
2023/02/27 00:28:36;;;;;;;4.27;0.70;;;;;;;0.36;72.29;101066.84;5073055;28;20476;-53
2023/02/27 00:31:03;;;;;;;0.20;0.10;;;;;;;0.35;72.07;101073.81;5072739;28;20458;-54
2023/02/27 00:33:30;;;;;;;0.40;0.20;;;;;;;0.34;72.59;101063.31;5072767;28;20458;-53
2023/02/27 00:35:58;;;;;;;0.30;0.20;;;;;;;0.45;72.37;101059.25;5072482;28;20476;-53
2023/02/27 00:38:25;;;;;;;0.20;0.20;;;;;;;0.45;71.79;101070.59;5072686;28;20542;-51
2023/02/27 00:40:51;;;;;;;0.60;0.60;;;;;;;0.30;73.02;101072.81;5072692;28;20540;-53
2023/02/27 00:43:18;;;;;;;0.20;0.10;;;;;;;0.45;72.46;101061.84;5072467;28;20955;-53
2023/02/27 00:45:44;;;;;;;0.20;0.10;;;;;;;0.23;73.27;101063.91;5072250;28;20473;-52
2023/02/27 00:48:11;;;;;;;0.20;0.10;;;;;;;0.30;73.43;101072.81;5072496;28;20456;-53
2023/02/27 00:50:37;;;;;;;0.70;0.70;;;;;;;0.32;73.84;101071.13;5072316;28;20453;-53
2023/02/27 00:53:04;;;;;;;0.43;0.43;;;;;;;0.35;72.90;101072.94;5072212;28;20445;-52
2023/02/27 00:55:30;;;;;;;0.53;0.53;;;;;;;0.42;73.42;101069.63;5072671;28;20474;-53
2023/02/27 00:57:57;;;;;;;0.20;0.10;;;;;;;0.44;73.85;101070.56;5072368;28;20524;-54
2023/02/27 01:00:23;;;;;;;0.60;0.60;;;;;;;0.42;73.28;101072.25;5072419;28;20489;-53
2023/02/27 01:02:50;;;;;;;0.47;0.47;;;;;;;0.34;73.62;101069.44;5072173;28;20449;-53
2023/02/27 01:05:17;;;;;;;0.30;0.20;;;;;;;0.15;73.76;101065.47;5071504;28;20943;-53
2023/02/27 01:07:43;;;;;;;0.20;0.10;;;;;;;0.21;73.59;101069.97;5072473;28;20450;-53
2023/02/27 01:10:11;;;;;;;0.20;0.10;;;;;;;0.26;74.46;101073.56;5072413;28;20503;-53
2023/02/27 01:12:38;;;;;;;0.20;0.10;;;;;;;0.37;72.99;101071.22;5072131;28;20505;-53
2023/02/27 01:15:06;;;;;;;0.20;0.10;;;;;;;0.38;73.77;101062.53;5072083;28;20450;-53
2023/02/27 01:17:33;;;;;;;0.20;0.10;;;;;;;0.18;74.11;101067.28;5072089;28;20449;-52
2023/02/27 01:19:59;;;;;;;0.30;0.20;;;;;;;0.21;74.55;101068.22;5071961;28;20482;-52
2023/02/27 01:22:26;;;;;;;1.07;0.40;;;;;;;0.26;74.26;101079.69;5072335;28;20445;-51
2023/02/27 01:24:52;;;;;;;0.20;0.10;;;;;;;0.21;74.23;101083.03;5072248;28;20973;-52
2023/02/27 01:27:19;;;;;;;0.20;0.10;;;;;;;0.26;74.50;101077.06;5071935;28;21013;-53
2023/02/27 01:29:45;;;;;;;0.20;0.10;;;;;;;0.19;74.29;101072.53;5072107;28;20537;-52
2023/02/27 01:32:11;;;;;;;0.20;0.10;;;;;;;0.16;74.76;101072.47;5071866;28;20860;-53
2023/02/27 01:34:38;;;;;;;0.30;0.20;;;;;;;0.16;75.33;101071.59;5071952;28;20963;-52
2023/02/27 01:37:05;;;;;;;0.30;0.27;;;;;;;0.17;73.81;101075.97;5072120;28;20470;-54
2023/02/27 01:39:31;;;;;;;0.20;0.10;;;;;;;0.28;73.57;101070.16;5072480;28;20497;-51
2023/02/27 01:41:59;;;;;;;0.30;0.30;;;;;;;0.27;73.90;101071.03;5072307;28;20831;-53
2023/02/27 01:44:28;;;;;;;0.20;0.20;;;;;;;0.29;73.71;101069.31;5072288;28;20598;-53
2023/02/27 01:46:56;;;;;;;0.20;0.10;;;;;;;0.16;75.08;101066.34;5072136;28;20535;-54
2023/02/27 01:49:33;;;;;;;0.33;0.20;;;;;;;0.25;74.30;101072.69;5066513;28;20481;-52
2023/02/27 01:52:05;;;;;;;0.20;0.20;;;;;;;0.29;73.86;101073.66;5069439;28;20957;-51
2023/02/27 01:54:35;;;;;;;0.30;0.20;;;;;;;0.20;75.04;101076.03;5072135;28;20492;-53
2023/02/27 01:57:05;;;;;;;0.20;0.20;;;;;;;0.15;75.30;101073.31;5071703;28;20489;-52
2023/02/27 01:59:38;;;;;;;0.30;0.30;;;;;;;0.20;74.87;101062.97;5071305;28;20922;-52
2023/02/27 02:02:11;;;;;;;0.20;0.10;;;;;;;0.15;74.69;101073.31;5072198;28;20816;-52
2023/02/27 02:04:39;;;;;;;0.20;0.20;;;;;;;0.09;75.58;101067.91;5071758;28;20442;-52
2023/02/27 02:07:08;;;;;;;0.20;0.20;;;;;;;0.05;75.86;101059.97;5071656;28;20846;-53
2023/02/27 02:09:42;;;;;;;0.20;0.10;;;;;;;-0.02;76.25;101064.13;5071802;28;20816;-53
2023/02/27 02:12:12;;;;;;;0.20;0.10;;;;;;;-0.37;77.90;101068.41;5071546;28;20457;-52
2023/02/27 02:14:39;;;;;;;0.20;0.10;;;;;;;-0.16;77.90;101062.88;5071747;28;20448;-53
2023/02/27 02:17:39;;;;;;;0.30;0.20;;;;;;;0.01;77.06;101055.50;5072054;28;20475;-53
2023/02/27 02:20:40;;;;;;;0.20;0.10;;;;;;;0.04;77.48;101060.81;5063536;28;20485;-53
2023/02/27 02:23:30;;;;;;;0.20;0.10;;;;;;;0.01;77.07;101058.13;5075319;28;20511;-52
2023/02/27 02:26:30;;;;;;;0.60;0.37;;;;;;;0.03;76.73;101064.25;5075105;28;21119;-53
2023/02/27 02:29:11;;;;;;;0.30;0.20;;;;;;;-0.10;77.19;101065.66;5075110;28;20918;-53
2023/02/27 02:32:07;;;;;;;0.20;0.20;;;;;;;-0.10;76.97;101068.28;5075314;28;20528;-52
2023/02/27 02:35:04;;;;;;;0.50;0.50;;;;;;;-0.34;78.60;101064.13;5075216;28;20888;-53
2023/02/27 02:37:49;;;;;;;0.40;0.30;;;;;;;-0.31;78.72;101072.06;5074986;28;20919;-53
2023/02/27 02:40:23;;;;;;;0.20;0.10;;;;;;;-0.34;78.96;101069.38;5074803;28;20486;-53
2023/02/27 02:42:57;;;;;;;0.20;0.10;;;;;;;-0.45;79.35;101070.78;5074890;28;20855;-53
2023/02/27 02:45:55;;;;;;;0.20;0.10;;;;;;;-0.21;78.86;101069.72;5074521;28;20475;-53
2023/02/27 02:48:33;;;;;;;0.30;0.20;;;;;;;-0.27;78.07;101064.28;5066477;28;20453;-53
2023/02/27 02:51:17;;;;;;;0.20;0.10;;;;;;;-0.15;77.58;101068.13;5074744;28;20502;-53
2023/02/27 02:54:02;;;;;;;0.20;0.10;;;;;;;-0.24;77.94;101060.06;5074497;28;20862;-54
2023/02/27 02:56:38;;;;;;;0.20;0.10;;;;;;;-0.20;77.85;101059.28;5074685;28;20821;-54
2023/02/27 02:59:29;;;;;;;0.20;0.20;;;;;;;-0.19;77.88;101065.41;5074641;28;20513;-53
2023/02/27 03:02:01;;;;;;;0.20;0.10;;;;;;;0.01;76.71;101069.44;5074665;28;20441;-53
2023/02/27 03:04:37;;;;;;;0.20;0.10;;;;;;;0.01;75.93;101059.00;5068026;28;20446;-52
2023/02/27 03:07:13;;;;;;;0.20;0.20;;;;;;;-0.23;77.08;101068.78;5074610;28;20462;-53
2023/02/27 03:09:45;;;;;;;0.20;0.10;;;;;;;-0.10;76.20;101071.78;5074481;28;20807;-53
2023/02/27 03:12:15;;;;;;;0.30;0.20;;;;;;;-0.20;76.21;101074.97;5074431;28;20454;-52
2023/02/27 03:14:50;;;;;;;0.20;0.10;;;;;;;-0.27;77.08;101074.75;5074426;28;20450;-52
2023/02/27 03:17:25;;;;;;;0.20;0.10;;;;;;;-0.07;76.12;101076.19;5074274;28;20983;-53
2023/02/27 03:20:00;;;;;;;0.20;0.10;;;;;;;-0.17;76.18;101074.16;5074743;28;20492;-54
2023/02/27 03:22:33;;;;;;;0.20;0.20;;;;;;;-0.19;75.67;101079.34;5074118;28;20805;-53
2023/02/27 03:25:01;;;;;;;0.20;0.10;;;;;;;-0.15;76.20;101082.91;5074035;28;20442;-52
2023/02/27 03:27:36;;;;;;;0.20;0.10;;;;;;;-0.05;75.66;101083.22;5073944;28;20450;-54
2023/02/27 03:30:09;;;;;;;0.20;0.10;;;;;;;-0.13;75.67;101076.91;5073868;28;20922;-52
2023/02/27 03:32:44;;;;;;;0.20;0.10;;;;;;;0.04;75.29;101082.59;5073921;28;20888;-53
2023/02/27 03:35:11;;;;;;;0.50;0.50;;;;;;;-0.26;75.08;101081.75;5073904;28;20449;-52
2023/02/27 03:37:59;;;;;;;0.77;0.33;;;;;;;-0.12;75.90;101083.03;5060960;28;20454;-53
2023/02/27 03:40:34;;;;;;;0.50;0.50;;;;;;;-0.10;75.28;101089.19;5073831;28;20873;-52
2023/02/27 03:43:20;;;;;;;0.20;0.20;;;;;;;-0.03;74.17;101085.88;5073945;28;20491;-53
2023/02/27 03:46:01;;;;;;;0.20;0.20;;;;;;;-0.39;75.60;101093.59;5073450;28;21005;-53
2023/02/27 03:48:28;;;;;;;0.20;0.10;;;;;;;-0.50;76.65;101093.28;5073735;28;20816;-53
2023/02/27 03:50:55;;;;;;;0.67;0.50;;;;;;;-0.58;76.87;101099.09;5073448;28;20442;-51
2023/02/27 03:53:36;;;;;;;0.20;0.20;;;;;;;-0.32;76.19;101096.41;5073614;28;20538;-53
2023/02/27 03:56:05;;;;;;;0.30;0.20;;;;;;;-0.22;76.45;101084.50;5073441;28;20523;-53
2023/02/27 03:58:32;;;;;;;0.30;0.20;;;;;;;-0.23;75.40;101090.56;5073626;28;20792;-52
2023/02/27 04:00:59;;;;;;;0.20;0.20;;;;;;;-0.25;75.87;101093.97;5073504;28;20497;-54
2023/02/27 04:03:26;;;;;;;0.20;0.20;;;;;;;-0.41;76.86;101108.31;5073511;28;20450;-53
2023/02/27 04:05:52;;;;;;;0.20;0.20;;;;;;;-0.42;75.79;101104.81;5073223;28;20465;-53
2023/02/27 04:08:38;;;;;;;0.33;0.30;;;;;;;-0.42;76.77;101101.31;5073353;28;20446;-53
2023/02/27 04:11:32;;;;;;;2.00;0.40;;;;;;;-0.48;77.05;101108.97;5073308;28;20434;-54
2023/02/27 04:14:19;;;;;;;0.30;0.30;;;;;;;-0.63;77.65;101110.31;5065265;28;20450;-53
2023/02/27 04:16:48;;;;;;;0.20;0.10;;;;;;;-0.71;78.42;101114.41;5073155;28;20466;-53
2023/02/27 04:19:15;;;;;;;0.20;0.10;;;;;;;-0.41;77.97;101122.28;5072960;28;20453;-53
2023/02/27 04:22:00;;;;;;;0.20;0.10;;;;;;;-0.59;77.33;101121.72;5073187;28;20442;-53
2023/02/27 04:24:54;;;;;;;2.37;1.17;;;;;;;-0.64;77.76;101113.75;5072978;28;20450;-53
2023/02/27 04:27:38;;;;;;;0.20;0.10;;;;;;;-0.65;77.80;101121.53;5072580;28;20549;-53
2023/02/27 04:30:24;;;;;;;0.20;0.10;;;;;;;-0.72;77.80;101120.47;5072744;28;20847;-52
2023/02/27 04:33:16;;;;;;;0.20;0.10;;;;;;;-0.64;77.26;101125.94;5072904;28;20457;-52
2023/02/27 04:35:49;;;;;;;0.20;0.10;;;;;;;-0.56;76.89;101124.41;5064592;28;20474;-53
2023/02/27 04:38:25;;;;;;;0.20;0.10;;;;;;;-0.72;77.78;101130.00;5072984;28;20593;-53
2023/02/27 04:41:07;;;;;;;0.20;0.10;;;;;;;-0.71;77.44;101124.84;5071916;28;20485;-53
2023/02/27 04:43:37;;;;;;;0.20;0.10;;;;;;;-0.76;77.79;101129.03;5072687;28;20489;-53
2023/02/27 04:46:07;;;;;;;0.27;0.20;;;;;;;-0.70;77.74;101125.72;5072480;28;20489;-54
2023/02/27 04:49:03;;;;;;;0.30;0.20;;;;;;;-0.80;77.57;101136.75;5073015;28;20947;-47
2023/02/27 04:51:37;;;;;;;0.20;0.10;;;;;;;-0.79;77.51;101136.78;5072618;28;20461;-48
2023/02/27 04:54:11;;;;;;;0.30;0.27;;;;;;;-0.76;77.75;101139.47;5072558;28;20503;-47
2023/02/27 04:56:47;;;;;;;0.20;0.10;;;;;;;-0.86;77.85;101126.09;5072147;28;20518;-47
2023/02/27 04:59:23;;;;;;;0.20;0.10;;;;;;;-0.85;77.37;101138.31;5072546;28;20491;-48
2023/02/27 05:02:18;;;;;;;0.20;0.10;;;;;;;-0.88;77.72;101130.38;5072340;28;20471;-47
2023/02/27 05:04:48;;;;;;;0.20;0.10;;;;;;;-0.86;77.72;101136.53;5060505;28;20526;-48
2023/02/27 05:07:19;;;;;;;0.20;0.10;;;;;;;-0.82;77.77;101134.09;5072135;28;20889;-47
2023/02/27 05:09:55;;;;;;;0.43;0.43;;;;;;;-0.85;77.55;101136.56;5072153;28;20966;-47
2023/02/27 05:12:32;;;;;;;0.20;0.10;;;;;;;-0.91;77.73;101144.22;5072334;28;20457;-48
2023/02/27 05:15:24;;;;;;;0.20;0.10;;;;;;;-0.93;77.76;101138.09;5072192;28;20442;-48
2023/02/27 05:18:04;;;;;;;0.20;0.20;;;;;;;-0.88;77.73;101151.25;5072225;28;20460;-49
2023/02/27 05:20:52;;;;;;;0.20;0.20;;;;;;;-0.94;77.57;101142.41;5072196;28;20486;-47
2023/02/27 05:23:33;;;;;;;0.20;0.10;;;;;;;-0.85;77.71;101146.13;5060485;28;20870;-48
2023/02/27 05:26:19;;;;;;;0.20;0.13;;;;;;;-0.60;76.53;101151.28;5071861;28;20466;-48
2023/02/27 05:29:22;;;;;;;0.20;0.10;;;;;;;-0.65;76.36;101156.38;5072080;28;20483;-48
2023/02/27 05:31:53;;;;;;;0.20;0.10;;;;;;;-0.82;77.13;101159.25;5063410;28;20442;-47
2023/02/27 05:34:24;;;;;;;0.20;0.17;;;;;;;-0.69;76.97;101161.41;5072348;28;20446;-48
2023/02/27 05:37:20;;;;;;;0.20;0.10;;;;;;;-0.80;76.78;101162.84;5072287;28;20513;-48
2023/02/27 05:39:50;;;;;;;0.20;0.10;;;;;;;-0.81;77.25;101158.47;5059194;28;20489;-47
2023/02/27 05:43:13;;;;;;;0.20;0.10;;;;;;;-0.85;77.55;101162.69;5071802;28;20452;-48
2023/02/27 05:45:44;;;;;;;0.20;0.20;;;;;;;-0.94;77.10;101165.00;4974183;28;20852;-47
2023/02/27 05:48:17;;;;;;;0.30;0.27;;;;;;;-0.85;77.68;101161.78;5069858;28;20489;-48
2023/02/27 05:50:48;;;;;;;0.20;0.10;;;;;;;-0.92;77.27;101173.78;5071683;28;20441;-48
2023/02/27 05:53:18;;;;;;;0.30;0.20;;;;;;;-0.73;76.85;101175.22;5076004;28;20454;-48
2023/02/27 05:55:49;;;;;;;0.20;0.10;;;;;;;-0.63;76.27;101174.69;5076017;28;20466;-47
2023/02/27 05:58:27;;;;;;;0.20;0.20;;;;;;;-0.57;75.72;101171.34;5075681;28;20943;-48
2023/02/27 06:00:58;;;;;;;0.20;0.10;;;;;;;-0.60;75.61;101170.44;5075530;28;20967;-48
2023/02/27 06:03:26;;;;;;;0.30;0.20;;;;;;;-0.87;76.76;101176.50;5075464;28;20464;-48
2023/02/27 06:05:54;;;;;;;0.20;0.10;;;;;;;-0.89;76.83;101181.69;5075681;28;20591;-47
2023/02/27 06:08:21;;;;;;;0.20;0.10;;;;;;;-1.02;77.62;101182.13;5075781;28;20496;-47
2023/02/27 06:10:50;;;;;;;0.20;0.20;;;;;;;-1.03;77.96;101181.25;5057831;28;20442;-48
2023/02/27 06:13:17;;;;;;;1.23;0.60;;;;;;;-0.73;77.29;101177.84;5075381;28;20963;-49
2023/02/27 06:15:44;;;;;;;0.20;0.10;;;;;;;-0.87;77.10;101187.84;5075192;28;20986;-48
2023/02/27 06:18:11;;;;;;;0.37;0.30;;;;;;;-0.76;76.78;101186.47;5075389;28;20453;-48
2023/02/27 06:20:38;;;;;;;0.33;0.33;;;;;;;-0.73;76.40;101190.88;5075457;28;20486;-48
2023/02/27 06:23:05;;;;;;;0.30;0.20;;;;;;;-0.61;75.52;101194.78;5062019;28;20449;-47
2023/02/27 06:25:32;;;;;;;0.20;0.20;;;;;;;-0.66;76.11;101191.13;5075119;28;20466;-48
2023/02/27 06:27:59;;;;;;;0.20;0.20;;;;;;;-0.43;75.43;101201.38;5075247;28;20461;-48
2023/02/27 06:30:26;;;;;;;0.20;0.10;;;;;;;-0.46;75.33;101207.41;5075070;28;20442;-49
2023/02/27 06:32:52;;;;;;;0.27;0.17;;;;;;;-0.49;75.40;101202.09;5075010;28;20966;-48
2023/02/27 06:35:19;;;;;;;0.20;0.10;;;;;;;-0.39;74.72;101204.16;5074981;28;20951;-47
2023/02/27 06:37:45;;;;;;;0.20;0.10;;;;;;;-0.37;74.20;101206.81;5075224;28;20450;-48
2023/02/27 06:40:12;;;;;;;0.20;0.10;;;;;;;-0.41;74.49;101205.84;5074787;28;20485;-47
2023/02/27 06:42:40;;;;;;;0.30;0.20;;;;;;;-0.21;74.89;101208.16;5075047;28;20457;-50
2023/02/27 06:45:08;;;;;;;0.20;0.10;;;;;;;-0.26;73.87;101214.97;5074660;28;20445;-48
2023/02/27 06:47:35;;;;;;;0.20;0.10;;;;;;;-0.28;74.87;101209.69;5057288;28;20499;-48
2023/02/27 06:50:02;;;;;;;0.20;0.10;;;;;;;-0.17;74.28;101207.38;5074799;28;20946;-48
2023/02/27 06:52:28;;;;;;;0.20;0.10;;;;;;;-0.21;75.42;101213.38;5074819;28;20450;-50
2023/02/27 06:54:55;;;;;;;0.20;0.10;;;;;;;-0.15;74.72;101210.94;5074445;28;20942;-48
2023/02/27 06:57:21;;;;;;;0.20;0.10;;;;;;;-0.07;74.46;101215.56;5074537;28;20819;-49
2023/02/27 06:59:47;;;;;;;0.20;0.10;;;;;;;0.11;74.48;101219.53;5074455;28;20977;-48
2023/02/27 07:02:15;;;;;;;0.20;0.10;;;;;;;0.15;74.11;101221.41;5074614;28;20456;-49
2023/02/27 07:04:42;;;;;;;0.20;0.10;;;;;;;0.40;73.81;101216.00;5073852;28;20545;-48
2023/02/27 07:07:09;;;;;;;0.20;0.10;;;;;;;0.38;73.86;101216.81;5074669;28;20560;-48
2023/02/27 07:09:55;;;;;;;0.20;0.20;;;;;;;0.36;73.77;101218.50;5074455;28;20449;-49
2023/02/27 07:12:22;;;;;;;0.20;0.10;;;;;;;0.52;73.50;101218.06;5074628;28;20542;-48
2023/02/27 07:14:48;;;;;;;0.20;0.20;;;;;;;0.38;73.97;101216.81;5074573;28;20454;-48
2023/02/27 07:17:14;;;;;;;0.20;0.20;;;;;;;0.36;74.26;101219.38;5074213;28;20473;-48
2023/02/27 07:19:41;;;;;;;0.30;0.23;;;;;;;0.47;73.39;101217.06;5074258;28;20536;-49
2023/02/27 07:22:10;;;;;;;0.20;0.10;;;;;;;0.44;73.53;101224.84;5074186;28;20496;-48
2023/02/27 07:24:37;;;;;;;0.20;0.10;;;;;;;0.53;73.99;101225.94;5074111;28;20903;-47
2023/02/27 07:27:03;;;;;;;0.20;0.20;;;;;;;0.61;73.44;101223.56;5073970;28;21018;-50
2023/02/27 07:29:30;;;;;;;0.20;0.10;;;;;;;0.73;73.44;101226.50;5074340;28;20450;-48
2023/02/27 07:31:56;;;;;;;0.20;0.20;;;;;;;0.68;72.53;101225.47;5074217;28;20446;-48
2023/02/27 07:34:22;;;;;;;0.20;0.10;;;;;;;0.80;72.53;101232.75;5073293;28;21050;-48
2023/02/27 07:36:49;;;;;;;0.20;0.10;;;;;;;0.80;72.96;101233.66;5074237;28;20470;-49
2023/02/27 07:39:16;;;;;;;0.20;0.10;;;;;;;0.91;72.30;101217.34;5073822;28;20449;-48
2023/02/27 07:41:42;;;;;;;0.20;0.20;;;;;;;0.92;72.21;101234.81;5073748;28;21027;-48
2023/02/27 07:44:10;;;;;;;0.30;0.20;;;;;;;1.05;71.97;101226.44;5056147;28;20484;-47
2023/02/27 07:46:36;;;;;;;0.40;0.33;;;;;;;1.03;70.80;101226.38;5073658;28;20839;-48
2023/02/27 07:49:03;;;;;;;0.20;0.20;;;;;;;1.13;71.65;101232.75;5070345;28;20468;-48
2023/02/27 07:51:29;;;;;;;0.20;0.10;;;;;;;1.19;72.12;101232.88;5067862;28;20541;-48
2023/02/27 07:53:57;;;;;;;0.20;0.20;;;;;;;1.25;71.51;101227.81;5073786;28;20445;-48
2023/02/27 07:56:24;;;;;;;0.87;0.47;;;;;;;1.34;71.53;101229.75;5073538;28;20497;-47
2023/02/27 07:58:51;;;;;;;0.33;0.33;;;;;;;1.31;70.82;101227.94;5060778;28;20449;-48
2023/02/27 08:01:17;;;;;;;0.20;0.10;;;;;;;1.40;70.75;101233.41;5073436;28;20493;-48
2023/02/27 08:03:44;;;;;;;0.20;0.20;;;;;;;1.51;70.20;101246.78;5073354;28;20831;-48
2023/02/27 08:06:10;;;;;;;0.20;0.10;;;;;;;1.57;70.50;101239.03;5073027;28;20573;-49
2023/02/27 08:08:37;;;;;;;0.50;0.50;;;;;;;1.57;71.00;101238.16;5073256;28;20814;-48
2023/02/27 08:11:04;;;;;;;0.20;0.10;;;;;;;1.60;70.25;101238.22;5073181;28;20943;-48
2023/02/27 08:13:30;;;;;;;0.50;0.30;;;;;;;1.56;69.40;101249.50;5073254;28;20457;-48
2023/02/27 08:16:17;;;;;;;0.30;0.30;;;;;;;1.64;69.82;101251.41;5072111;28;20497;-48
2023/02/27 08:18:43;;;;;;;0.30;0.20;;;;;;;1.46;69.67;101257.13;5073305;28;20477;-48
2023/02/27 08:21:10;;;;;;;0.30;0.20;;;;;;;1.52;68.87;101231.94;5073200;28;20493;-48
2023/02/27 08:23:36;;;;;;;0.20;0.20;;;;;;;1.53;68.34;101255.56;5073328;28;20472;-48
2023/02/27 08:26:02;;;;;;;0.20;0.10;;;;;;;1.45;67.42;101246.63;5072824;28;20552;-48
2023/02/27 08:28:29;;;;;;;0.73;0.27;;;;;;;1.54;67.66;101245.97;5073128;28;20449;-48
2023/02/27 08:30:55;;;;;;;3.67;0.30;;;;;;;1.69;67.61;101243.69;5072909;28;20797;-48
2023/02/27 08:33:23;;;;;;;0.30;0.30;;;;;;;1.86;69.08;101249.31;5072687;28;20446;-48
2023/02/27 08:35:49;;;;;;;0.30;0.23;;;;;;;2.13;68.89;101246.38;5072810;28;20956;-48
2023/02/27 08:38:16;;;;;;;0.40;0.40;;;;;;;2.26;67.62;101251.91;5072851;28;20802;-48
2023/02/27 08:40:42;;;;;;;0.30;0.30;;;;;;;1.97;67.58;101256.56;5072606;28;20497;-48
2023/02/27 08:43:09;;;;;;;0.37;0.27;;;;;;;1.92;67.38;101258.19;5072730;28;20454;-48
2023/02/27 08:45:35;;;;;;;0.20;0.20;;;;;;;1.89;67.03;101265.09;5072481;28;20482;-48
2023/02/27 08:48:02;;;;;;;1.60;0.30;;;;;;;2.08;67.84;101256.78;5072589;28;20447;-48
2023/02/27 08:50:28;;;;;;;2.00;0.83;;;;;;;2.19;67.69;101260.50;5072635;28;20453;-50
2023/02/27 08:52:55;;;;;;;0.50;0.50;;;;;;;2.32;67.29;101264.25;5072748;28;20460;-48
2023/02/27 08:55:21;;;;;;;0.30;0.20;;;;;;;2.30;65.66;101255.47;5072489;28;20461;-48
2023/02/27 08:57:47;;;;;;;0.40;0.33;;;;;;;2.00;65.43;101263.59;5072633;28;20455;-48
2023/02/27 09:00:15;;;;;;;0.20;0.10;;;;;;;2.12;66.81;101265.59;5072014;28;20516;-48
2023/02/27 09:02:41;;;;;;;0.93;0.40;;;;;;;2.17;66.83;101261.31;5072599;28;20585;-47
2023/02/27 09:05:08;;;;;;;6.13;0.57;;;;;;;2.16;66.13;101256.94;5072367;28;20820;-48
2023/02/27 09:07:34;;;;;;;0.20;0.20;;;;;;;2.34;66.56;101262.59;5072516;28;20511;-48
2023/02/27 09:10:01;;;;;;;0.20;0.20;;;;;;;2.37;66.63;101254.78;5072236;28;20461;-48
2023/02/27 09:12:27;;;;;;;0.20;0.20;;;;;;;2.27;66.17;101263.28;5072236;28;20461;-48
2023/02/27 09:14:54;;;;;;;1.23;1.23;;;;;;;2.59;66.01;101256.06;5072191;28;20943;-48
2023/02/27 09:17:20;;;;;;;0.40;0.40;;;;;;;2.76;66.84;101266.91;5072218;28;20465;-48
2023/02/27 09:19:47;;;;;;;0.30;0.20;;;;;;;2.70;65.68;101261.53;5072351;28;20446;-48
2023/02/27 09:22:13;;;;;;;0.40;0.30;;;;;;;2.52;65.25;101259.44;5072287;28;20491;-48
2023/02/27 09:24:39;;;;;;;9.83;0.40;;;;;;;2.52;65.05;101278.69;5072265;28;20499;-54
2023/02/27 09:27:06;;;;;;;0.67;0.67;;;;;;;2.74;65.68;101271.22;5053956;28;20465;-48
2023/02/27 09:29:33;;;;;;;0.20;0.20;;;;;;;2.93;65.26;101262.84;5071972;28;20449;-48
2023/02/27 09:31:59;;;;;;;0.20;0.10;;;;;;;3.03;64.34;101291.03;5072165;28;20963;-49
2023/02/27 09:34:26;;;;;;;0.60;0.60;;;;;;;2.56;64.47;101269.13;5072057;28;20998;-48
2023/02/27 09:36:52;;;;;;;0.30;0.20;;;;;;;2.59;64.00;101277.94;5072292;28;20473;-48
2023/02/27 09:39:20;;;;;;;0.20;0.20;;;;;;;2.55;65.14;101270.88;5071849;28;20951;-48
2023/02/27 09:42:04;;;;;;;0.20;0.20;;;;;;;2.80;65.66;101274.84;5071950;28;20628;-49
2023/02/27 09:44:43;;;;;;;0.20;0.10;;;;;;;2.84;64.72;101283.66;5072328;28;20441;-48
2023/02/27 09:47:34;;;;;;;0.77;0.77;;;;;;;2.90;65.25;101281.16;5071957;28;20480;-48
2023/02/27 09:50:05;;;;;;;8.03;1.50;;;;;;;2.76;65.17;101285.28;5071975;28;20438;-48
2023/02/27 09:52:35;;;;;;;0.20;0.20;;;;;;;2.59;66.19;101284.94;5071945;28;20525;-48
2023/02/27 09:55:04;;;;;;;0.30;0.20;;;;;;;2.83;64.74;101292.41;5072504;28;20453;-48
2023/02/27 09:57:43;;;;;;;11.93;1.17;;;;;;;2.73;65.89;101282.56;5072055;28;20449;-48
2023/02/27 10:00:29;;;;;;;0.33;0.20;;;;;;;2.79;65.61;101301.06;5072300;28;20437;-48
2023/02/27 10:02:58;;;;;;;0.30;0.20;;;;;;;2.71;66.81;101281.66;5071818;28;20524;-48
2023/02/27 10:05:32;;;;;;;1.27;1.17;;;;;;;2.68;66.16;101303.50;5071921;28;20493;-49
2023/02/27 10:08:15;;;;;;;0.23;0.17;;;;;;;2.84;67.33;101304.66;5071696;28;20957;-48
2023/02/27 10:11:06;;;;;;;0.30;0.20;;;;;;;2.71;67.93;101303.53;5071911;28;20446;-48
2023/02/27 10:13:46;;;;;;;0.30;0.23;;;;;;;2.89;67.53;101301.28;5070821;28;20449;-48
2023/02/27 10:16:18;;;;;;;0.20;0.20;;;;;;;2.88;66.80;101309.16;5071752;28;20468;-48
2023/02/27 10:19:05;;;;;;;0.30;0.20;;;;;;;2.71;66.40;101300.91;5072043;28;20453;-48
2023/02/27 10:21:45;;;;;;;0.30;0.20;;;;;;;2.71;66.65;101298.28;5071691;28;20516;-49
2023/02/27 10:24:22;;;;;;;0.20;0.20;;;;;;;3.06;66.73;101300.72;5071566;28;20445;-48
2023/02/27 10:26:53;;;;;;;0.90;0.90;;;;;;;3.02;66.53;101310.28;5071695;28;20468;-47
2023/02/27 10:29:31;;;;;;;0.50;0.30;;;;;;;3.25;66.26;101308.94;5071928;28;20445;-48
2023/02/27 10:32:05;;;;;;;0.30;0.20;;;;;;;3.29;64.46;101336.16;5071330;28;20525;-51
2023/02/27 10:34:33;;;;;;;0.40;0.40;;;;;;;3.28;63.33;101302.84;5058228;28;20991;-48
2023/02/27 10:37:02;;;;;;;0.57;0.50;;;;;;;3.26;63.77;101318.59;5071590;28;20472;-48
2023/02/27 10:39:41;;;;;;;1.80;0.97;;;;;;;3.05;64.36;101325.22;5074318;28;20449;-48
2023/02/27 10:42:11;;;;;;;0.30;0.20;;;;;;;3.16;64.28;101329.81;5075020;28;20492;-49
2023/02/27 10:44:37;;;;;;;0.20;0.10;;;;;;;3.10;65.02;101320.91;5075085;28;20446;-49
2023/02/27 10:47:04;;;;;;;1.13;0.80;;;;;;;3.38;65.17;101331.06;5075302;28;20482;-53
2023/02/27 10:49:32;;;;;;;0.30;0.20;;;;;;;3.32;65.93;101337.97;5074955;28;20868;-52
2023/02/27 10:52:17;;;;;;;0.20;0.20;;;;;;;3.50;65.71;101317.25;5075052;28;20448;-53
2023/02/27 10:54:46;;;;;;;0.30;0.20;;;;;;;3.34;65.49;101315.22;5074888;28;20448;-54
2023/02/27 10:57:31;;;;;;;0.33;0.33;;;;;;;3.47;65.30;101301.44;5075209;28;20519;-53
2023/02/27 11:00:04;;;;;;;1.53;0.30;;;;;;;3.50;64.94;101299.72;5074735;28;20442;-53
2023/02/27 11:02:37;;;;;;;0.20;0.20;;;;;;;3.77;64.01;101328.22;5074609;28;21002;-53
2023/02/27 11:05:16;;;;;;;0.70;0.70;;;;;;;3.73;64.67;101302.75;5074420;28;20438;-53
2023/02/27 11:07:43;;;;;;;0.40;0.20;;;;;;;3.68;64.33;101311.38;5074797;28;20878;-52
2023/02/27 11:10:10;;;;;;;0.43;0.43;;;;;;;3.78;62.87;101310.69;5061550;28;20966;-53
2023/02/27 11:12:38;;;;;;;0.87;0.87;;;;;;;3.81;63.93;101300.19;5074452;28;20454;-52
2023/02/27 11:15:13;;;;;;;0.30;0.20;;;;;;;3.56;63.45;101305.09;5074574;28;20456;-53
2023/02/27 11:17:42;;;;;;;0.57;0.40;;;;;;;3.65;61.49;101304.34;5074382;28;20465;-53
2023/02/27 11:20:39;;;;;;;0.37;0.33;;;;;;;3.53;61.81;101294.50;5074498;28;20486;-53
2023/02/27 11:23:14;;;;;;;0.30;0.20;;;;;;;3.49;63.57;101291.81;5060914;28;20546;-52
2023/02/27 11:25:41;;;;;;;0.30;0.20;;;;;;;3.51;63.03;101295.34;5074284;28;20469;-53
2023/02/27 11:28:28;;;;;;;0.20;0.20;;;;;;;3.61;63.69;101280.63;5074068;28;20931;-53
2023/02/27 11:30:58;;;;;;;3.17;0.30;;;;;;;3.65;62.83;101267.53;5074271;28;20890;-53
2023/02/27 11:33:26;;;;;;;0.40;0.30;;;;;;;3.48;63.31;101279.53;5074136;28;20456;-53
2023/02/27 11:35:54;;;;;;;0.60;0.60;;;;;;;3.69;63.78;101273.72;5074001;28;20843;-53
2023/02/27 11:38:27;;;;;;;0.30;0.20;;;;;;;3.78;64.46;101264.25;5074233;28;20438;-53
2023/02/27 11:40:57;;;;;;;0.30;0.30;;;;;;;3.62;64.14;101280.66;5073807;28;20465;-53
2023/02/27 11:43:38;;;;;;;0.20;0.20;;;;;;;3.82;63.88;101260.78;5074096;28;20460;-52
2023/02/27 11:46:09;;;;;;;16.53;1.10;;;;;;;3.98;63.24;101263.66;5073793;28;20879;-53
2023/02/27 11:49:12;;;;;;;0.30;0.20;;;;;;;3.66;62.66;101257.91;5073791;28;20477;-52
2023/02/27 11:51:55;;;;;;;0.40;0.40;;;;;;;4.22;63.48;101276.22;5074041;28;20449;-53
2023/02/27 11:54:48;;;;;;;0.20;0.20;;;;;;;4.12;62.86;101268.25;5073954;28;20452;-53